sensor_id;sensor_type;location;lat;lon;timestamp;pressure;altitude;pressure_sealevel;temperature;humidity
63447;BME280;49577;49.872;6.190;2022-09-01T00:02:06;99775.20;;;13.70;82.28
63447;BME280;49577;49.872;6.190;2022-09-01T00:04:34;99772.52;;;13.71;82.42
63447;BME280;49577;49.872;6.190;2022-09-01T00:07:05;99772.27;;;13.72;82.15
63447;BME280;49577;49.872;6.190;2022-09-01T00:09:31;99769.35;;;13.72;82.12
63447;BME280;49577;49.872;6.190;2022-09-01T00:11:57;99768.20;;;13.70;81.98
63447;BME280;49577;49.872;6.190;2022-09-01T00:14:29;99772.96;;;13.68;81.83
63447;BME280;49577;49.872;6.190;2022-09-01T00:16:56;99771.28;;;13.62;81.44
63447;BME280;49577;49.872;6.190;2022-09-01T00:19:23;99769.73;;;13.56;81.75
63447;BME280;49577;49.872;6.190;2022-09-01T00:21:48;99769.80;;;13.53;81.89
63447;BME280;49577;49.872;6.190;2022-09-01T00:24:15;99769.77;;;13.51;82.08
63447;BME280;49577;49.872;6.190;2022-09-01T00:26:41;99772.52;;;13.50;81.94
63447;BME280;49577;49.872;6.190;2022-09-01T00:29:07;99771.23;;;13.50;82.02
63447;BME280;49577;49.872;6.190;2022-09-01T00:31:32;99775.61;;;13.50;82.11
63447;BME280;49577;49.872;6.190;2022-09-01T00:33:58;99773.98;;;13.51;81.90
63447;BME280;49577;49.872;6.190;2022-09-01T00:36:24;99770.71;;;13.48;81.55
63447;BME280;49577;49.872;6.190;2022-09-01T00:38:50;99766.85;;;13.43;81.32
63447;BME280;49577;49.872;6.190;2022-09-01T00:41:19;99766.94;;;13.37;81.51
63447;BME280;49577;49.872;6.190;2022-09-01T00:46:28;99769.91;;;13.27;81.35
63447;BME280;49577;49.872;6.190;2022-09-01T00:49:07;99771.17;;;13.19;81.56
63447;BME280;49577;49.872;6.190;2022-09-01T00:51:34;99773.37;;;13.12;81.96
63447;BME280;49577;49.872;6.190;2022-09-01T00:54:02;99773.48;;;13.08;81.99
63447;BME280;49577;49.872;6.190;2022-09-01T00:56:30;99775.48;;;13.07;82.11
63447;BME280;49577;49.872;6.190;2022-09-01T00:58:58;99774.67;;;13.06;82.34
63447;BME280;49577;49.872;6.190;2022-09-01T01:01:24;99781.09;;;13.05;82.07
63447;BME280;49577;49.872;6.190;2022-09-01T01:03:49;99779.14;;;13.03;81.80
63447;BME280;49577;49.872;6.190;2022-09-01T01:06:15;99774.91;;;12.98;81.88
63447;BME280;49577;49.872;6.190;2022-09-01T01:08:45;99780.23;;;12.97;82.31
63447;BME280;49577;49.872;6.190;2022-09-01T01:11:24;99777.38;;;12.98;82.50
63447;BME280;49577;49.872;6.190;2022-09-01T01:13:51;99779.98;;;12.98;82.56
63447;BME280;49577;49.872;6.190;2022-09-01T01:16:19;99776.04;;;12.97;82.24
63447;BME280;49577;49.872;6.190;2022-09-01T01:18:44;99774.31;;;12.94;82.35
63447;BME280;49577;49.872;6.190;2022-09-01T01:21:18;99775.65;;;12.93;82.55
63447;BME280;49577;49.872;6.190;2022-09-01T01:24:27;99779.11;;;12.93;82.42
63447;BME280;49577;49.872;6.190;2022-09-01T01:26:53;99777.52;;;12.88;82.21
63447;BME280;49577;49.872;6.190;2022-09-01T01:29:31;99777.84;;;12.83;82.26
63447;BME280;49577;49.872;6.190;2022-09-01T01:31:57;99775.95;;;12.80;82.36
63447;BME280;49577;49.872;6.190;2022-09-01T01:34:23;99780.17;;;12.80;82.49
63447;BME280;49577;49.872;6.190;2022-09-01T01:36:49;99780.20;;;12.80;82.66
63447;BME280;49577;49.872;6.190;2022-09-01T01:39:18;99780.45;;;12.79;82.65
63447;BME280;49577;49.872;6.190;2022-09-01T01:41:45;99779.88;;;12.79;82.82
63447;BME280;49577;49.872;6.190;2022-09-01T01:44:15;99775.79;;;12.80;82.84
63447;BME280;49577;49.872;6.190;2022-09-01T01:46:45;99777.57;;;12.82;83.04
63447;BME280;49577;49.872;6.190;2022-09-01T01:49:13;99782.02;;;12.81;82.70
63447;BME280;49577;49.872;6.190;2022-09-01T01:51:46;99785.63;;;12.78;82.34
63447;BME280;49577;49.872;6.190;2022-09-01T01:54:13;99781.63;;;12.72;82.38
63447;BME280;49577;49.872;6.190;2022-09-01T01:56:39;99783.61;;;12.66;82.40
63447;BME280;49577;49.872;6.190;2022-09-01T01:59:07;99784.80;;;12.61;82.29
63447;BME280;49577;49.872;6.190;2022-09-01T02:01:34;99784.21;;;12.55;82.21
63447;BME280;49577;49.872;6.190;2022-09-01T02:04:00;99788.65;;;12.49;82.16
63447;BME280;49577;49.872;6.190;2022-09-01T02:06:31;99787.51;;;12.43;82.16
63447;BME280;49577;49.872;6.190;2022-09-01T02:08:57;99785.42;;;12.36;82.27
63447;BME280;49577;49.872;6.190;2022-09-01T02:11:26;99784.34;;;12.32;82.28
63447;BME280;49577;49.872;6.190;2022-09-01T02:13:53;99786.58;;;12.27;82.40
63447;BME280;49577;49.872;6.190;2022-09-01T02:16:23;99784.89;;;12.24;82.29
63447;BME280;49577;49.872;6.190;2022-09-01T02:18:48;99782.25;;;12.21;82.57
63447;BME280;49577;49.872;6.190;2022-09-01T02:21:17;99785.88;;;12.20;82.76
63447;BME280;49577;49.872;6.190;2022-09-01T02:23:48;99782.27;;;12.19;83.02
63447;BME280;49577;49.872;6.190;2022-09-01T02:26:14;99784.49;;;12.19;83.20
63447;BME280;49577;49.872;6.190;2022-09-01T02:28:41;99781.71;;;12.19;83.05
63447;BME280;49577;49.872;6.190;2022-09-01T02:31:08;99783.79;;;12.19;83.31
63447;BME280;49577;49.872;6.190;2022-09-01T02:33:37;99781.48;;;12.17;82.90
63447;BME280;49577;49.872;6.190;2022-09-01T02:36:07;99781.38;;;12.13;82.86
63447;BME280;49577;49.872;6.190;2022-09-01T02:38:33;99777.40;;;12.12;83.04
63447;BME280;49577;49.872;6.190;2022-09-01T02:41:00;99773.30;;;12.11;82.73
63447;BME280;49577;49.872;6.190;2022-09-01T02:43:26;99770.19;;;12.08;82.62
63447;BME280;49577;49.872;6.190;2022-09-01T02:45:54;99766.12;;;12.03;82.69
63447;BME280;49577;49.872;6.190;2022-09-01T02:48:25;99768.64;;;12.02;83.13
63447;BME280;49577;49.872;6.190;2022-09-01T02:50:53;99769.54;;;12.02;83.20
63447;BME280;49577;49.872;6.190;2022-09-01T02:53:21;99778.03;;;12.03;83.15
63447;BME280;49577;49.872;6.190;2022-09-01T02:55:47;99776.37;;;12.05;83.25
63447;BME280;49577;49.872;6.190;2022-09-01T02:58:12;99774.50;;;12.04;83.10
63447;BME280;49577;49.872;6.190;2022-09-01T03:00:43;99771.31;;;12.02;83.21
63447;BME280;49577;49.872;6.190;2022-09-01T03:03:09;99767.42;;;11.97;82.85
63447;BME280;49577;49.872;6.190;2022-09-01T03:05:37;99763.74;;;11.89;82.78
63447;BME280;49577;49.872;6.190;2022-09-01T03:08:07;99765.27;;;11.84;82.95
63447;BME280;49577;49.872;6.190;2022-09-01T03:10:37;99759.96;;;11.79;83.00
63447;BME280;49577;49.872;6.190;2022-09-01T03:13:15;99762.30;;;11.78;83.43
63447;BME280;49577;49.872;6.190;2022-09-01T03:15:41;99759.08;;;11.79;83.62
63447;BME280;49577;49.872;6.190;2022-09-01T03:18:08;99757.98;;;11.80;83.34
63447;BME280;49577;49.872;6.190;2022-09-01T03:20:35;99760.23;;;11.78;83.12
63447;BME280;49577;49.872;6.190;2022-09-01T03:23:03;99760.67;;;11.76;83.37
63447;BME280;49577;49.872;6.190;2022-09-01T03:25:29;99759.18;;;11.75;83.46
63447;BME280;49577;49.872;6.190;2022-09-01T03:27:56;99764.95;;;11.73;83.22
63447;BME280;49577;49.872;6.190;2022-09-01T03:30:28;99760.20;;;11.68;83.09
63447;BME280;49577;49.872;6.190;2022-09-01T03:32:58;99761.09;;;11.62;83.05
63447;BME280;49577;49.872;6.190;2022-09-01T03:35:25;99763.09;;;11.58;83.25
63447;BME280;49577;49.872;6.190;2022-09-01T03:37:53;99766.25;;;11.55;83.33
63447;BME280;49577;49.872;6.190;2022-09-01T03:40:19;99769.73;;;11.55;83.47
63447;BME280;49577;49.872;6.190;2022-09-01T03:42:45;99767.98;;;11.56;83.54
63447;BME280;49577;49.872;6.190;2022-09-01T03:45:11;99766.91;;;11.56;83.44
63447;BME280;49577;49.872;6.190;2022-09-01T03:47:43;99766.40;;;11.56;83.32
63447;BME280;49577;49.872;6.190;2022-09-01T03:50:12;99766.71;;;11.56;83.35
63447;BME280;49577;49.872;6.190;2022-09-01T03:52:54;99767.25;;;11.56;83.44
63447;BME280;49577;49.872;6.190;2022-09-01T03:55:23;99769.70;;;11.56;83.32
63447;BME280;49577;49.872;6.190;2022-09-01T03:57:52;99770.03;;;11.54;83.07
63447;BME280;49577;49.872;6.190;2022-09-01T04:00:19;99769.52;;;11.48;83.01
63447;BME280;49577;49.872;6.190;2022-09-01T04:02:49;99766.75;;;11.42;82.93
63447;BME280;49577;49.872;6.190;2022-09-01T04:05:17;99769.85;;;11.37;82.89
63447;BME280;49577;49.872;6.190;2022-09-01T04:07:43;99766.70;;;11.31;82.86
63447;BME280;49577;49.872;6.190;2022-09-01T04:10:10;99759.77;;;11.25;82.75
63447;BME280;49577;49.872;6.190;2022-09-01T04:12:36;99760.25;;;11.20;82.80
63447;BME280;49577;49.872;6.190;2022-09-01T04:15:02;99763.91;;;11.15;82.94
63447;BME280;49577;49.872;6.190;2022-09-01T04:17:27;99758.54;;;11.11;83.03
63447;BME280;49577;49.872;6.190;2022-09-01T04:20:11;99759.05;;;11.09;83.17
63447;BME280;49577;49.872;6.190;2022-09-01T04:22:37;99759.85;;;11.07;83.23
63447;BME280;49577;49.872;6.190;2022-09-01T04:25:04;99756.46;;;11.05;83.10
63447;BME280;49577;49.872;6.190;2022-09-01T04:27:29;99758.77;;;11.02;83.10
63447;BME280;49577;49.872;6.190;2022-09-01T04:29:55;99754.65;;;10.98;83.00
63447;BME280;49577;49.872;6.190;2022-09-01T04:32:21;99753.71;;;10.94;83.01
63447;BME280;49577;49.872;6.190;2022-09-01T04:34:48;99753.66;;;10.88;82.89
63447;BME280;49577;49.872;6.190;2022-09-01T04:37:16;99748.83;;;10.84;83.11
63447;BME280;49577;49.872;6.190;2022-09-01T04:39:48;99753.48;;;10.83;83.28
63447;BME280;49577;49.872;6.190;2022-09-01T04:42:17;99755.09;;;10.79;82.96
63447;BME280;49577;49.872;6.190;2022-09-01T04:44:43;99758.10;;;10.76;82.98
63447;BME280;49577;49.872;6.190;2022-09-01T04:47:11;99757.15;;;10.74;83.21
63447;BME280;49577;49.872;6.190;2022-09-01T04:49:40;99756.13;;;10.74;83.32
63447;BME280;49577;49.872;6.190;2022-09-01T04:52:06;99753.96;;;10.72;83.59
63447;BME280;49577;49.872;6.190;2022-09-01T04:54:31;99759.03;;;10.75;83.77
63447;BME280;49577;49.872;6.190;2022-09-01T04:56:59;99758.65;;;10.81;84.01
63447;BME280;49577;49.872;6.190;2022-09-01T04:59:25;99758.14;;;10.86;83.82
63447;BME280;49577;49.872;6.190;2022-09-01T05:01:51;99759.05;;;10.89;83.57
63447;BME280;49577;49.872;6.190;2022-09-01T05:04:21;99757.70;;;10.88;83.31
63447;BME280;49577;49.872;6.190;2022-09-01T05:06:52;99757.36;;;10.88;83.35
63447;BME280;49577;49.872;6.190;2022-09-01T05:09:20;99757.99;;;10.89;83.40
63447;BME280;49577;49.872;6.190;2022-09-01T05:11:45;99759.34;;;10.90;83.30
63447;BME280;49577;49.872;6.190;2022-09-01T05:14:11;99759.73;;;10.92;83.27
63447;BME280;49577;49.872;6.190;2022-09-01T05:16:37;99760.13;;;10.94;83.08
63447;BME280;49577;49.872;6.190;2022-09-01T05:19:06;99759.68;;;10.96;82.96
63447;BME280;49577;49.872;6.190;2022-09-01T05:21:39;99756.92;;;10.98;83.03
63447;BME280;49577;49.872;6.190;2022-09-01T05:24:05;99756.63;;;11.03;83.07
63447;BME280;49577;49.872;6.190;2022-09-01T05:26:31;99754.48;;;11.06;82.95
63447;BME280;49577;49.872;6.190;2022-09-01T05:29:01;99753.84;;;11.11;82.96
63447;BME280;49577;49.872;6.190;2022-09-01T05:31:28;99752.20;;;11.18;82.94
63447;BME280;49577;49.872;6.190;2022-09-01T05:33:58;99757.84;;;11.41;83.14
63447;BME280;49577;49.872;6.190;2022-09-01T05:36:26;99759.61;;;12.14;82.61
63447;BME280;49577;49.872;6.190;2022-09-01T05:38:52;99760.58;;;12.92;80.86
63447;BME280;49577;49.872;6.190;2022-09-01T05:41:19;99756.27;;;13.61;78.92
63447;BME280;49577;49.872;6.190;2022-09-01T05:43:46;99759.26;;;14.24;77.46
63447;BME280;49577;49.872;6.190;2022-09-01T05:46:16;99761.48;;;14.85;75.48
63447;BME280;49577;49.872;6.190;2022-09-01T05:48:42;99760.30;;;15.42;74.06
63447;BME280;49577;49.872;6.190;2022-09-01T05:51:10;99760.40;;;16.03;72.38
63447;BME280;49577;49.872;6.190;2022-09-01T05:53:39;99760.33;;;16.63;70.86
63447;BME280;49577;49.872;6.190;2022-09-01T05:56:09;99754.76;;;17.18;69.07
63447;BME280;49577;49.872;6.190;2022-09-01T05:58:38;99756.67;;;17.73;67.57
63447;BME280;49577;49.872;6.190;2022-09-01T06:01:05;99755.67;;;18.27;65.92
63447;BME280;49577;49.872;6.190;2022-09-01T06:03:31;99754.36;;;18.81;64.86
63447;BME280;49577;49.872;6.190;2022-09-01T06:06:02;99757.63;;;19.32;63.18
63447;BME280;49577;49.872;6.190;2022-09-01T06:08:28;99756.81;;;19.84;61.83
63447;BME280;49577;49.872;6.190;2022-09-01T06:10:53;99757.11;;;20.38;60.64
63447;BME280;49577;49.872;6.190;2022-09-01T06:13:19;99760.54;;;20.93;58.86
63447;BME280;49577;49.872;6.190;2022-09-01T06:15:47;99760.58;;;21.39;57.32
63447;BME280;49577;49.872;6.190;2022-09-01T06:18:12;99761.17;;;21.88;56.04
63447;BME280;49577;49.872;6.190;2022-09-01T06:20:40;99759.35;;;22.42;54.84
63447;BME280;49577;49.872;6.190;2022-09-01T06:23:08;99760.03;;;22.86;53.40
63447;BME280;49577;49.872;6.190;2022-09-01T06:25:37;99761.08;;;23.26;52.37
63447;BME280;49577;49.872;6.190;2022-09-01T06:28:04;99760.53;;;23.77;51.29
63447;BME280;49577;49.872;6.190;2022-09-01T06:30:32;99761.35;;;24.35;50.11
63447;BME280;49577;49.872;6.190;2022-09-01T06:33:01;99757.65;;;24.78;48.39
63447;BME280;49577;49.872;6.190;2022-09-01T06:35:29;99754.77;;;25.18;47.35
63447;BME280;49577;49.872;6.190;2022-09-01T06:37:56;99757.65;;;25.34;46.15
63447;BME280;49577;49.872;6.190;2022-09-01T06:40:22;99758.75;;;25.54;45.69
63447;BME280;49577;49.872;6.190;2022-09-01T06:42:50;99757.90;;;25.71;45.06
63447;BME280;49577;49.872;6.190;2022-09-01T06:45:19;99758.71;;;26.05;44.51
63447;BME280;49577;49.872;6.190;2022-09-01T06:47:46;99757.65;;;26.23;43.98
63447;BME280;49577;49.872;6.190;2022-09-01T06:50:14;99760.98;;;26.67;43.75
63447;BME280;49577;49.872;6.190;2022-09-01T06:52:44;99758.14;;;27.12;42.60
63447;BME280;49577;49.872;6.190;2022-09-01T06:55:11;99759.92;;;27.48;42.07
63447;BME280;49577;49.872;6.190;2022-09-01T06:57:37;99755.62;;;27.72;40.91
63447;BME280;49577;49.872;6.190;2022-09-01T07:00:11;99756.05;;;27.71;40.31
63447;BME280;49577;49.872;6.190;2022-09-01T07:02:52;99756.77;;;27.81;40.02
63447;BME280;49577;49.872;6.190;2022-09-01T07:05:19;99757.11;;;27.88;40.13
63447;BME280;49577;49.872;6.190;2022-09-01T07:07:46;99759.42;;;28.45;40.00
63447;BME280;49577;49.872;6.190;2022-09-01T07:10:15;99757.09;;;29.10;39.27
63447;BME280;49577;49.872;6.190;2022-09-01T07:12:40;99762.52;;;29.60;38.08
63447;BME280;49577;49.872;6.190;2022-09-01T07:15:10;99765.56;;;29.88;37.58
63447;BME280;49577;49.872;6.190;2022-09-01T07:17:49;99758.46;;;30.20;36.51
63447;BME280;49577;49.872;6.190;2022-09-01T07:20:17;99759.95;;;30.31;35.25
63447;BME280;49577;49.872;6.190;2022-09-01T07:22:43;99759.00;;;30.68;34.39
63447;BME280;49577;49.872;6.190;2022-09-01T07:25:08;99758.38;;;31.31;33.15
63447;BME280;49577;49.872;6.190;2022-09-01T07:27:36;99758.75;;;31.78;32.87
63447;BME280;49577;49.872;6.190;2022-09-01T07:30:03;99762.91;;;32.09;31.74
63447;BME280;49577;49.872;6.190;2022-09-01T07:32:29;99758.77;;;32.16;31.08
63447;BME280;49577;49.872;6.190;2022-09-01T07:34:55;99754.44;;;32.36;30.45
63447;BME280;49577;49.872;6.190;2022-09-01T07:37:20;99757.95;;;32.46;30.37
63447;BME280;49577;49.872;6.190;2022-09-01T07:39:47;99753.77;;;32.72;29.93
63447;BME280;49577;49.872;6.190;2022-09-01T07:42:12;99752.95;;;33.01;29.07
63447;BME280;49577;49.872;6.190;2022-09-01T07:44:41;99755.20;;;33.13;28.93
63447;BME280;49577;49.872;6.190;2022-09-01T07:47:06;99754.25;;;33.57;28.60
63447;BME280;49577;49.872;6.190;2022-09-01T07:49:33;99755.14;;;34.02;27.99
63447;BME280;49577;49.872;6.190;2022-09-01T07:52:04;99756.34;;;34.32;27.14
63447;BME280;49577;49.872;6.190;2022-09-01T07:54:31;99755.52;;;34.45;27.35
63447;BME280;49577;49.872;6.190;2022-09-01T07:56:58;99755.91;;;34.91;27.04
63447;BME280;49577;49.872;6.190;2022-09-01T07:59:23;99752.95;;;35.32;26.61
63447;BME280;49577;49.872;6.190;2022-09-01T08:01:50;99754.30;;;35.63;25.81
63447;BME280;49577;49.872;6.190;2022-09-01T08:04:16;99753.52;;;35.60;25.55
63447;BME280;49577;49.872;6.190;2022-09-01T08:06:46;99753.02;;;35.60;24.85
63447;BME280;49577;49.872;6.190;2022-09-01T08:09:12;99750.66;;;35.49;25.01
63447;BME280;49577;49.872;6.190;2022-09-01T08:11:37;99751.95;;;35.40;25.28
63447;BME280;49577;49.872;6.190;2022-09-01T08:14:03;99750.81;;;35.16;24.98
63447;BME280;49577;49.872;6.190;2022-09-01T08:16:29;99752.05;;;34.88;24.91
63447;BME280;49577;49.872;6.190;2022-09-01T08:18:55;99752.90;;;34.52;24.95
63447;BME280;49577;49.872;6.190;2022-09-01T08:21:22;99748.24;;;34.12;25.28
63447;BME280;49577;49.872;6.190;2022-09-01T08:23:49;99745.64;;;34.12;25.59
63447;BME280;49577;49.872;6.190;2022-09-01T08:26:16;99746.41;;;34.40;25.53
63447;BME280;49577;49.872;6.190;2022-09-01T08:28:42;99747.15;;;34.52;25.32
63447;BME280;49577;49.872;6.190;2022-09-01T08:31:10;99745.23;;;34.66;25.15
63447;BME280;49577;49.872;6.190;2022-09-01T08:33:37;99744.33;;;34.91;24.62
63447;BME280;49577;49.872;6.190;2022-09-01T08:36:09;99742.11;;;34.86;24.75
63447;BME280;49577;49.872;6.190;2022-09-01T08:38:36;99744.42;;;34.98;24.62
63447;BME280;49577;49.872;6.190;2022-09-01T08:41:02;99743.51;;;35.15;24.53
63447;BME280;49577;49.872;6.190;2022-09-01T08:46:26;99738.17;;;35.21;24.00
63447;BME280;49577;49.872;6.190;2022-09-01T08:48:55;99744.10;;;34.99;24.14
63447;BME280;49577;49.872;6.190;2022-09-01T08:56:22;99741.36;;;35.24;23.66
63447;BME280;49577;49.872;6.190;2022-09-01T08:58:47;99735.29;;;35.21;23.62
63447;BME280;49577;49.872;6.190;2022-09-01T09:01:28;99737.06;;;35.33;23.88
63447;BME280;49577;49.872;6.190;2022-09-01T09:07:19;99731.42;;;35.06;23.67
63447;BME280;49577;49.872;6.190;2022-09-01T09:09:55;99732.23;;;34.91;23.65
63447;BME280;49577;49.872;6.190;2022-09-01T09:17:38;99728.60;;;35.00;24.24
63447;BME280;49577;49.872;6.190;2022-09-01T09:20:05;99733.66;;;35.22;23.69
63447;BME280;49577;49.872;6.190;2022-09-01T09:22:31;99733.65;;;35.21;23.65
63447;BME280;49577;49.872;6.190;2022-09-01T09:25:23;99736.16;;;35.12;23.63
63447;BME280;49577;49.872;6.190;2022-09-01T09:27:50;99729.09;;;34.97;23.67
63447;BME280;49577;49.872;6.190;2022-09-01T09:30:19;99724.73;;;34.68;23.81
63447;BME280;49577;49.872;6.190;2022-09-01T09:33:05;99723.20;;;34.34;24.08
63447;BME280;49577;49.872;6.190;2022-09-01T09:35:41;99719.23;;;34.35;24.25
63447;BME280;49577;49.872;6.190;2022-09-01T09:43:28;99715.41;;;34.03;24.22
63447;BME280;49577;49.872;6.190;2022-09-01T09:46:20;99714.41;;;33.83;24.69
63447;BME280;49577;49.872;6.190;2022-09-01T09:48:47;99707.30;;;33.63;24.64
63447;BME280;49577;49.872;6.190;2022-09-01T09:51:20;99706.69;;;33.03;25.41
63447;BME280;49577;49.872;6.190;2022-09-01T09:53:45;99705.86;;;33.16;25.25
63447;BME280;49577;49.872;6.190;2022-09-01T09:56:21;99709.08;;;33.46;25.19
63447;BME280;49577;49.872;6.190;2022-09-01T09:58:51;99713.56;;;33.13;25.21
63447;BME280;49577;49.872;6.190;2022-09-01T10:03:58;99704.33;;;33.04;25.13
63447;BME280;49577;49.872;6.190;2022-09-01T10:06:40;99699.41;;;33.74;24.69
63447;BME280;49577;49.872;6.190;2022-09-01T10:09:33;99690.96;;;33.94;24.10
63447;BME280;49577;49.872;6.190;2022-09-01T10:12:00;99694.33;;;32.96;24.89
63447;BME280;49577;49.872;6.190;2022-09-01T10:14:40;99691.63;;;32.96;25.23
63447;BME280;49577;49.872;6.190;2022-09-01T10:17:13;99693.42;;;33.23;25.21
63447;BME280;49577;49.872;6.190;2022-09-01T10:19:50;99689.55;;;33.82;24.49
63447;BME280;49577;49.872;6.190;2022-09-01T10:22:19;99686.27;;;34.09;24.06
63447;BME280;49577;49.872;6.190;2022-09-01T10:24:45;99681.65;;;34.41;23.82
63447;BME280;49577;49.872;6.190;2022-09-01T10:27:25;99675.84;;;34.57;23.72
63447;BME280;49577;49.872;6.190;2022-09-01T10:29:56;99677.34;;;34.85;23.49
63447;BME280;49577;49.872;6.190;2022-09-01T10:32:43;99676.79;;;34.81;23.13
63447;BME280;49577;49.872;6.190;2022-09-01T10:35:15;99679.88;;;34.08;23.55
63447;BME280;49577;49.872;6.190;2022-09-01T10:37:43;99671.44;;;34.17;23.73
63447;BME280;49577;49.872;6.190;2022-09-01T10:42:54;99669.17;;;33.43;24.33
63447;BME280;49577;49.872;6.190;2022-09-01T10:45:34;99666.98;;;33.49;24.49
63447;BME280;49577;49.872;6.190;2022-09-01T10:50:44;99671.69;;;33.94;23.87
63447;BME280;49577;49.872;6.190;2022-09-01T10:59:24;99662.71;;;34.61;23.52
63447;BME280;49577;49.872;6.190;2022-09-01T11:04:22;99669.26;;;34.92;22.84
63447;BME280;49577;49.872;6.190;2022-09-01T11:07:03;99669.52;;;34.24;22.94
63447;BME280;49577;49.872;6.190;2022-09-01T11:09:37;99669.38;;;33.03;23.99
63447;BME280;49577;49.872;6.190;2022-09-01T11:14:53;99668.77;;;32.86;24.43
63447;BME280;49577;49.872;6.190;2022-09-01T11:20:09;99662.41;;;32.76;24.85
63447;BME280;49577;49.872;6.190;2022-09-01T11:22:59;99659.05;;;32.06;25.46
63447;BME280;49577;49.872;6.190;2022-09-01T11:25:39;99653.76;;;31.41;26.22
63447;BME280;49577;49.872;6.190;2022-09-01T11:30:58;99661.11;;;32.30;25.61
63447;BME280;49577;49.872;6.190;2022-09-01T11:33:49;99659.73;;;32.72;25.45
63447;BME280;49577;49.872;6.190;2022-09-01T11:38:51;99646.73;;;34.05;24.22
63447;BME280;49577;49.872;6.190;2022-09-01T11:41:23;99651.01;;;34.69;23.56
63447;BME280;49577;49.872;6.190;2022-09-01T11:43:51;99656.89;;;35.05;22.55
63447;BME280;49577;49.872;6.190;2022-09-01T11:46:26;99662.05;;;34.81;22.52
63447;BME280;49577;49.872;6.190;2022-09-01T11:48:51;99654.42;;;34.97;22.45
63447;BME280;49577;49.872;6.190;2022-09-01T11:51:19;99651.70;;;34.57;22.80
63447;BME280;49577;49.872;6.190;2022-09-01T11:53:45;99656.83;;;33.40;23.86
63447;BME280;49577;49.872;6.190;2022-09-01T11:56:17;99655.33;;;32.61;24.63
63447;BME280;49577;49.872;6.190;2022-09-01T11:58:43;99651.86;;;32.29;24.99
63447;BME280;49577;49.872;6.190;2022-09-01T12:01:16;99651.46;;;32.08;25.49
63447;BME280;49577;49.872;6.190;2022-09-01T12:03:44;99637.73;;;32.45;25.63
63447;BME280;49577;49.872;6.190;2022-09-01T12:06:18;99640.19;;;32.60;25.46
63447;BME280;49577;49.872;6.190;2022-09-01T12:08:51;99630.52;;;32.54;25.39
63447;BME280;49577;49.872;6.190;2022-09-01T12:11:21;99639.48;;;32.26;25.63
63447;BME280;49577;49.872;6.190;2022-09-01T12:16:27;99628.74;;;31.59;26.22
63447;BME280;49577;49.872;6.190;2022-09-01T12:18:54;99629.54;;;31.45;26.36
63447;BME280;49577;49.872;6.190;2022-09-01T12:21:24;99626.71;;;31.30;26.55
63447;BME280;49577;49.872;6.190;2022-09-01T12:23:52;99623.69;;;30.84;26.98
63447;BME280;49577;49.872;6.190;2022-09-01T12:26:23;99617.95;;;30.33;27.57
63447;BME280;49577;49.872;6.190;2022-09-01T12:28:49;99618.20;;;30.01;28.04
63447;BME280;49577;49.872;6.190;2022-09-01T12:31:22;99620.42;;;29.72;28.63
63447;BME280;49577;49.872;6.190;2022-09-01T12:33:49;99622.52;;;29.23;29.17
63447;BME280;49577;49.872;6.190;2022-09-01T12:36:25;99623.55;;;28.70;29.81
63447;BME280;49577;49.872;6.190;2022-09-01T12:38:54;99623.88;;;28.48;30.20
63447;BME280;49577;49.872;6.190;2022-09-01T12:41:35;99622.73;;;28.39;30.53
63447;BME280;49577;49.872;6.190;2022-09-01T12:44:33;99622.35;;;28.12;30.73
63447;BME280;49577;49.872;6.190;2022-09-01T12:47:09;99617.36;;;27.92;31.12
63447;BME280;49577;49.872;6.190;2022-09-01T12:49:42;99617.23;;;27.82;31.42
63447;BME280;49577;49.872;6.190;2022-09-01T12:52:22;99621.98;;;27.68;31.59
63447;BME280;49577;49.872;6.190;2022-09-01T12:57:45;99617.11;;;27.55;32.07
63447;BME280;49577;49.872;6.190;2022-09-01T13:05:28;99612.70;;;27.58;31.94
63447;BME280;49577;49.872;6.190;2022-09-01T13:07:56;99612.95;;;27.69;31.78
63447;BME280;49577;49.872;6.190;2022-09-01T13:10:24;99611.95;;;27.77;31.67
63447;BME280;49577;49.872;6.190;2022-09-01T13:12:52;99608.15;;;27.68;31.83
63447;BME280;49577;49.872;6.190;2022-09-01T13:15:18;99606.66;;;27.68;31.75
63447;BME280;49577;49.872;6.190;2022-09-01T13:17:44;99605.48;;;27.86;31.86
63447;BME280;49577;49.872;6.190;2022-09-01T13:20:09;99610.48;;;27.81;31.74
63447;BME280;49577;49.872;6.190;2022-09-01T13:22:36;99609.05;;;27.64;31.82
63447;BME280;49577;49.872;6.190;2022-09-01T13:25:02;99604.96;;;27.34;32.22
63447;BME280;49577;49.872;6.190;2022-09-01T13:27:28;99602.52;;;27.04;32.71
63447;BME280;49577;49.872;6.190;2022-09-01T13:29:53;99604.25;;;26.77;33.02
63447;BME280;49577;49.872;6.190;2022-09-01T13:32:20;99601.77;;;26.44;33.24
63447;BME280;49577;49.872;6.190;2022-09-01T13:34:50;99598.23;;;26.25;33.42
63447;BME280;49577;49.872;6.190;2022-09-01T13:37:16;99594.79;;;26.24;33.85
63447;BME280;49577;49.872;6.190;2022-09-01T13:39:41;99590.91;;;26.24;33.84
63447;BME280;49577;49.872;6.190;2022-09-01T13:42:07;99590.16;;;26.23;33.92
63447;BME280;49577;49.872;6.190;2022-09-01T13:44:33;99589.45;;;26.23;33.98
63447;BME280;49577;49.872;6.190;2022-09-01T13:46:58;99582.78;;;26.19;33.93
63447;BME280;49577;49.872;6.190;2022-09-01T13:49:24;99584.11;;;26.13;34.10
63447;BME280;49577;49.872;6.190;2022-09-01T13:51:52;99578.13;;;26.15;34.27
63447;BME280;49577;49.872;6.190;2022-09-01T13:54:18;99576.70;;;26.11;34.30
63447;BME280;49577;49.872;6.190;2022-09-01T13:56:44;99579.45;;;26.14;34.67
63447;BME280;49577;49.872;6.190;2022-09-01T13:59:09;99573.91;;;26.35;34.06
63447;BME280;49577;49.872;6.190;2022-09-01T14:01:35;99570.80;;;26.55;34.15
63447;BME280;49577;49.872;6.190;2022-09-01T14:04:00;99571.61;;;26.84;33.48
63447;BME280;49577;49.872;6.190;2022-09-01T14:06:28;99561.16;;;27.09;33.09
63447;BME280;49577;49.872;6.190;2022-09-01T14:08:53;99561.84;;;27.21;32.69
63447;BME280;49577;49.872;6.190;2022-09-01T14:11:19;99560.11;;;27.29;32.76
63447;BME280;49577;49.872;6.190;2022-09-01T14:13:45;99559.53;;;27.41;32.48